sensor_id;sensor_type;location;lat;lon;timestamp;temperature;humidity
19174;DHT22;9719;49.322;8.536;2023-05-08T00:03:12;17.50;99.90
19174;DHT22;9719;49.322;8.536;2023-05-08T00:08:15;17.50;99.90
19174;DHT22;9719;49.322;8.536;2023-05-08T00:13:17;17.60;99.90
19174;DHT22;9719;49.322;8.536;2023-05-08T00:18:19;17.60;99.90
19174;DHT22;9719;49.322;8.536;2023-05-08T00:23:22;17.60;99.90
19174;DHT22;9719;49.322;8.536;2023-05-08T00:28:24;17.60;99.90
19174;DHT22;9719;49.322;8.536;2023-05-08T00:33:25;17.60;99.90
19174;DHT22;9719;49.322;8.536;2023-05-08T00:38:31;17.60;99.90
19174;DHT22;9719;49.322;8.536;2023-05-08T00:43:33;17.60;99.90
19174;DHT22;9719;49.322;8.536;2023-05-08T00:48:37;17.50;99.90
19174;DHT22;9719;49.322;8.536;2023-05-08T00:53:42;17.50;99.90
19174;DHT22;9719;49.322;8.536;2023-05-08T00:58:45;17.50;99.90
19174;DHT22;9719;49.322;8.536;2023-05-08T01:03:47;17.40;99.90
19174;DHT22;9719;49.322;8.536;2023-05-08T01:08:50;17.40;99.90
19174;DHT22;9719;49.322;8.536;2023-05-08T01:14:02;17.50;99.90
19174;DHT22;9719;49.322;8.536;2023-05-08T01:25:15;17.50;99.90
19174;DHT22;9719;49.322;8.536;2023-05-08T01:36:09;17.50;99.90
19174;DHT22;9719;49.322;8.536;2023-05-08T01:41:16;17.50;99.90
19174;DHT22;9719;49.322;8.536;2023-05-08T01:46:26;17.50;99.90
19174;DHT22;9719;49.322;8.536;2023-05-08T01:51:36;17.50;99.90
19174;DHT22;9719;49.322;8.536;2023-05-08T01:56:41;17.50;99.90
19174;DHT22;9719;49.322;8.536;2023-05-08T02:01:44;17.50;99.90
19174;DHT22;9719;49.322;8.536;2023-05-08T02:06:50;17.40;99.90
19174;DHT22;9719;49.322;8.536;2023-05-08T02:11:52;17.40;99.90
19174;DHT22;9719;49.322;8.536;2023-05-08T02:16:56;17.40;99.90
19174;DHT22;9719;49.322;8.536;2023-05-08T02:21:59;17.40;99.90
19174;DHT22;9719;49.322;8.536;2023-05-08T02:27:01;17.40;99.90
19174;DHT22;9719;49.322;8.536;2023-05-08T02:32:05;17.40;99.90
19174;DHT22;9719;49.322;8.536;2023-05-08T02:37:10;17.40;99.90
19174;DHT22;9719;49.322;8.536;2023-05-08T02:42:13;17.40;99.90
19174;DHT22;9719;49.322;8.536;2023-05-08T02:47:20;17.40;99.90
19174;DHT22;9719;49.322;8.536;2023-05-08T02:52:28;17.40;99.90
19174;DHT22;9719;49.322;8.536;2023-05-08T02:57:36;17.40;99.90
19174;DHT22;9719;49.322;8.536;2023-05-08T03:02:43;17.40;99.90
19174;DHT22;9719;49.322;8.536;2023-05-08T03:07:52;17.40;99.90
19174;DHT22;9719;49.322;8.536;2023-05-08T03:12:55;17.40;99.90
19174;DHT22;9719;49.322;8.536;2023-05-08T03:18:01;17.40;99.90
19174;DHT22;9719;49.322;8.536;2023-05-08T03:23:07;17.40;99.90
19174;DHT22;9719;49.322;8.536;2023-05-08T03:28:09;17.40;99.90
19174;DHT22;9719;49.322;8.536;2023-05-08T03:33:12;17.40;99.90
19174;DHT22;9719;49.322;8.536;2023-05-08T03:38:15;17.40;99.90
19174;DHT22;9719;49.322;8.536;2023-05-08T03:43:17;17.40;99.90
19174;DHT22;9719;49.322;8.536;2023-05-08T03:48:20;17.40;99.90
19174;DHT22;9719;49.322;8.536;2023-05-08T03:53:24;17.40;99.90
19174;DHT22;9719;49.322;8.536;2023-05-08T03:58:31;17.40;99.90
19174;DHT22;9719;49.322;8.536;2023-05-08T04:03:52;17.40;99.90
19174;DHT22;9719;49.322;8.536;2023-05-08T04:09:02;17.40;99.90
19174;DHT22;9719;49.322;8.536;2023-05-08T04:14:06;17.40;99.90
19174;DHT22;9719;49.322;8.536;2023-05-08T04:19:14;17.30;99.90
19174;DHT22;9719;49.322;8.536;2023-05-08T04:24:20;17.30;99.90
19174;DHT22;9719;49.322;8.536;2023-05-08T04:29:23;17.30;99.90
19174;DHT22;9719;49.322;8.536;2023-05-08T04:34:25;17.30;99.90
19174;DHT22;9719;49.322;8.536;2023-05-08T04:39:28;17.40;99.90
19174;DHT22;9719;49.322;8.536;2023-05-08T04:44:29;17.40;99.90
19174;DHT22;9719;49.322;8.536;2023-05-08T04:49:31;17.40;99.90
19174;DHT22;9719;49.322;8.536;2023-05-08T04:54:34;17.50;99.90
19174;DHT22;9719;49.322;8.536;2023-05-08T04:59:36;17.50;99.90
19174;DHT22;9719;49.322;8.536;2023-05-08T05:04:37;17.60;99.90
19174;DHT22;9719;49.322;8.536;2023-05-08T05:09:40;17.60;99.90
19174;DHT22;9719;49.322;8.536;2023-05-08T05:14:42;17.60;99.90
19174;DHT22;9719;49.322;8.536;2023-05-08T05:19:44;17.60;99.90
19174;DHT22;9719;49.322;8.536;2023-05-08T05:24:47;17.60;99.90
19174;DHT22;9719;49.322;8.536;2023-05-08T05:29:49;17.60;99.90
19174;DHT22;9719;49.322;8.536;2023-05-08T05:34:51;17.60;99.90
19174;DHT22;9719;49.322;8.536;2023-05-08T05:39:55;17.60;99.90
19174;DHT22;9719;49.322;8.536;2023-05-08T05:44:56;17.60;99.90
19174;DHT22;9719;49.322;8.536;2023-05-08T05:49:58;17.70;99.90
19174;DHT22;9719;49.322;8.536;2023-05-08T05:55:01;17.70;99.90
19174;DHT22;9719;49.322;8.536;2023-05-08T06:00:04;17.70;99.90
19174;DHT22;9719;49.322;8.536;2023-05-08T06:05:07;17.70;99.90
19174;DHT22;9719;49.322;8.536;2023-05-08T06:10:10;17.80;99.90
19174;DHT22;9719;49.322;8.536;2023-05-08T06:15:12;17.90;99.90
19174;DHT22;9719;49.322;8.536;2023-05-08T06:20:14;18.00;99.90
19174;DHT22;9719;49.322;8.536;2023-05-08T06:25:17;18.00;99.90
19174;DHT22;9719;49.322;8.536;2023-05-08T06:30:19;18.10;99.90
19174;DHT22;9719;49.322;8.536;2023-05-08T06:35:20;18.10;99.90
19174;DHT22;9719;49.322;8.536;2023-05-08T06:40:23;18.20;99.90
19174;DHT22;9719;49.322;8.536;2023-05-08T06:45:25;18.20;99.90
19174;DHT22;9719;49.322;8.536;2023-05-08T06:50:27;18.30;99.90
19174;DHT22;9719;49.322;8.536;2023-05-08T06:55:30;18.30;99.90
19174;DHT22;9719;49.322;8.536;2023-05-08T07:00:31;18.30;99.90
19174;DHT22;9719;49.322;8.536;2023-05-08T07:05:33;18.30;99.90
19174;DHT22;9719;49.322;8.536;2023-05-08T07:10:36;18.30;99.90
19174;DHT22;9719;49.322;8.536;2023-05-08T07:15:38;18.40;99.90
19174;DHT22;9719;49.322;8.536;2023-05-08T07:20:39;18.40;99.90
19174;DHT22;9719;49.322;8.536;2023-05-08T07:25:42;18.50;99.90
19174;DHT22;9719;49.322;8.536;2023-05-08T07:30:44;18.60;99.90
19174;DHT22;9719;49.322;8.536;2023-05-08T07:35:45;18.60;99.90
19174;DHT22;9719;49.322;8.536;2023-05-08T07:40:48;18.70;99.90
19174;DHT22;9719;49.322;8.536;2023-05-08T07:45:51;18.80;99.90
19174;DHT22;9719;49.322;8.536;2023-05-08T07:50:53;18.80;99.90
19174;DHT22;9719;49.322;8.536;2023-05-08T07:55:56;18.80;99.90
19174;DHT22;9719;49.322;8.536;2023-05-08T08:00:57;18.90;99.90
19174;DHT22;9719;49.322;8.536;2023-05-08T08:05:59;19.00;99.90
19174;DHT22;9719;49.322;8.536;2023-05-08T08:11:02;19.10;99.90
19174;DHT22;9719;49.322;8.536;2023-05-08T08:16:04;19.10;99.90
19174;DHT22;9719;49.322;8.536;2023-05-08T08:21:07;19.20;99.90
19174;DHT22;9719;49.322;8.536;2023-05-08T08:26:10;19.30;99.90
19174;DHT22;9719;49.322;8.536;2023-05-08T08:31:11;19.30;99.90
19174;DHT22;9719;49.322;8.536;2023-05-08T08:36:14;19.30;99.90
19174;DHT22;9719;49.322;8.536;2023-05-08T08:41:17;19.20;99.90
19174;DHT22;9719;49.322;8.536;2023-05-08T08:46:23;19.20;99.90
19174;DHT22;9719;49.322;8.536;2023-05-08T08:51:27;19.20;99.90
19174;DHT22;9719;49.322;8.536;2023-05-08T08:56:35;19.10;99.90
19174;DHT22;9719;49.322;8.536;2023-05-08T09:01:39;19.10;99.90
19174;DHT22;9719;49.322;8.536;2023-05-08T09:06:41;19.10;99.90
19174;DHT22;9719;49.322;8.536;2023-05-08T09:11:47;19.10;99.90
19174;DHT22;9719;49.322;8.536;2023-05-08T09:16:49;19.10;99.90
19174;DHT22;9719;49.322;8.536;2023-05-08T09:21:51;19.20;99.90
19174;DHT22;9719;49.322;8.536;2023-05-08T09:26:54;19.30;99.90
19174;DHT22;9719;49.322;8.536;2023-05-08T09:31:56;19.40;99.90
19174;DHT22;9719;49.322;8.536;2023-05-08T09:37:11;19.60;99.90
19174;DHT22;9719;49.322;8.536;2023-05-08T09:42:14;19.80;99.90
19174;DHT22;9719;49.322;8.536;2023-05-08T09:47:17;20.00;99.90
19174;DHT22;9719;49.322;8.536;2023-05-08T09:52:19;20.20;99.90
19174;DHT22;9719;49.322;8.536;2023-05-08T09:57:22;20.40;99.90
19174;DHT22;9719;49.322;8.536;2023-05-08T10:02:24;20.50;99.90
19174;DHT22;9719;49.322;8.536;2023-05-08T10:07:27;20.50;99.90
19174;DHT22;9719;49.322;8.536;2023-05-08T10:12:31;20.40;99.90
19174;DHT22;9719;49.322;8.536;2023-05-08T10:17:38;20.30;99.90
19174;DHT22;9719;49.322;8.536;2023-05-08T10:22:42;20.40;99.90
19174;DHT22;9719;49.322;8.536;2023-05-08T10:27:50;20.60;99.90
19174;DHT22;9719;49.322;8.536;2023-05-08T10:32:55;20.70;99.90
19174;DHT22;9719;49.322;8.536;2023-05-08T10:37:58;20.80;99.90
19174;DHT22;9719;49.322;8.536;2023-05-08T10:43:02;20.90;99.90
19174;DHT22;9719;49.322;8.536;2023-05-08T10:48:12;21.30;99.90
19174;DHT22;9719;49.322;8.536;2023-05-08T10:53:19;21.70;99.90
19174;DHT22;9719;49.322;8.536;2023-05-08T10:58:31;21.90;99.90
19174;DHT22;9719;49.322;8.536;2023-05-08T11:03:38;22.10;99.90
19174;DHT22;9719;49.322;8.536;2023-05-08T11:08:48;22.20;99.90
19174;DHT22;9719;49.322;8.536;2023-05-08T11:13:55;22.50;99.90
19174;DHT22;9719;49.322;8.536;2023-05-08T11:19:18;22.90;99.90
19174;DHT22;9719;49.322;8.536;2023-05-08T11:24:33;23.40;99.90
19174;DHT22;9719;49.322;8.536;2023-05-08T11:29:36;24.10;99.90
19174;DHT22;9719;49.322;8.536;2023-05-08T11:34:45;24.30;99.90
19174;DHT22;9719;49.322;8.536;2023-05-08T11:39:48;24.10;99.90
19174;DHT22;9719;49.322;8.536;2023-05-08T11:45:03;23.90;99.90
19174;DHT22;9719;49.322;8.536;2023-05-08T11:50:07;24.00;99.90
19174;DHT22;9719;49.322;8.536;2023-05-08T11:55:10;24.30;99.90
19174;DHT22;9719;49.322;8.536;2023-05-08T12:00:14;24.40;99.90
19174;DHT22;9719;49.322;8.536;2023-05-08T12:05:25;24.60;99.90
19174;DHT22;9719;49.322;8.536;2023-05-08T12:10:27;24.80;99.90
19174;DHT22;9719;49.322;8.536;2023-05-08T12:15:30;24.80;99.90
19174;DHT22;9719;49.322;8.536;2023-05-08T12:20:31;24.80;99.90
19174;DHT22;9719;49.322;8.536;2023-05-08T12:25:33;24.50;99.90
19174;DHT22;9719;49.322;8.536;2023-05-08T12:30:37;24.10;99.90
19174;DHT22;9719;49.322;8.536;2023-05-08T12:35:39;23.80;99.90
19174;DHT22;9719;49.322;8.536;2023-05-08T12:40:42;23.80;99.90
19174;DHT22;9719;49.322;8.536;2023-05-08T12:45:46;23.90;99.90
19174;DHT22;9719;49.322;8.536;2023-05-08T12:50:51;24.00;99.90
19174;DHT22;9719;49.322;8.536;2023-05-08T12:55:54;24.10;99.90
19174;DHT22;9719;49.322;8.536;2023-05-08T13:01:05;24.30;99.90
19174;DHT22;9719;49.322;8.536;2023-05-08T13:06:21;24.20;99.90
19174;DHT22;9719;49.322;8.536;2023-05-08T13:11:29;24.20;99.90
19174;DHT22;9719;49.322;8.536;2023-05-08T13:16:42;24.30;99.90
19174;DHT22;9719;49.322;8.536;2023-05-08T13:21:44;24.20;99.90
19174;DHT22;9719;49.322;8.536;2023-05-08T13:26:47;24.40;99.90
19174;DHT22;9719;49.322;8.536;2023-05-08T13:31:50;24.60;99.90
19174;DHT22;9719;49.322;8.536;2023-05-08T13:36:51;24.50;99.90
19174;DHT22;9719;49.322;8.536;2023-05-08T13:41:53;24.50;99.90
19174;DHT22;9719;49.322;8.536;2023-05-08T13:46:56;24.50;99.90
19174;DHT22;9719;49.322;8.536;2023-05-08T13:51:57;24.30;99.90
19174;DHT22;9719;49.322;8.536;2023-05-08T13:57:00;24.30;99.90
19174;DHT22;9719;49.322;8.536;2023-05-08T14:02:03;24.20;99.90
19174;DHT22;9719;49.322;8.536;2023-05-08T14:07:05;24.10;99.90
19174;DHT22;9719;49.322;8.536;2023-05-08T14:12:07;24.10;99.90
19174;DHT22;9719;49.322;8.536;2023-05-08T14:17:10;24.00;99.90
19174;DHT22;9719;49.322;8.536;2023-05-08T14:22:11;23.80;99.90
19174;DHT22;9719;49.322;8.536;2023-05-08T14:27:13;23.70;99.90
19174;DHT22;9719;49.322;8.536;2023-05-08T14:32:16;23.60;99.90
19174;DHT22;9719;49.322;8.536;2023-05-08T14:37:18;23.40;99.90
19174;DHT22;9719;49.322;8.536;2023-05-08T14:42:20;23.20;99.90
19174;DHT22;9719;49.322;8.536;2023-05-08T14:47:23;22.90;99.90
19174;DHT22;9719;49.322;8.536;2023-05-08T14:52:25;22.80;99.90
19174;DHT22;9719;49.322;8.536;2023-05-08T14:57:26;22.80;99.90
19174;DHT22;9719;49.322;8.536;2023-05-08T15:02:29;22.70;99.90
19174;DHT22;9719;49.322;8.536;2023-05-08T15:07:31;22.60;99.90
19174;DHT22;9719;49.322;8.536;2023-05-08T15:12:33;22.50;99.90
19174;DHT22;9719;49.322;8.536;2023-05-08T15:17:36;22.60;99.90
19174;DHT22;9719;49.322;8.536;2023-05-08T15:22:40;22.70;99.90
19174;DHT22;9719;49.322;8.536;2023-05-08T15:27:42;22.70;99.90
19174;DHT22;9719;49.322;8.536;2023-05-08T15:32:45;22.60;99.90
19174;DHT22;9719;49.322;8.536;2023-05-08T15:37:47;22.60;99.90
19174;DHT22;9719;49.322;8.536;2023-05-08T15:42:48;22.60;99.90
19174;DHT22;9719;49.322;8.536;2023-05-08T15:47:51;22.60;99.90
19174;DHT22;9719;49.322;8.536;2023-05-08T15:52:53;22.60;99.90
19174;DHT22;9719;49.322;8.536;2023-05-08T15:57:54;22.60;99.90
19174;DHT22;9719;49.322;8.536;2023-05-08T16:02:57;22.60;99.90
19174;DHT22;9719;49.322;8.536;2023-05-08T16:07:59;22.60;99.90
19174;DHT22;9719;49.322;8.536;2023-05-08T16:13:01;22.60;99.90
19174;DHT22;9719;49.322;8.536;2023-05-08T16:18:04;22.70;99.90
19174;DHT22;9719;49.322;8.536;2023-05-08T16:23:06;22.70;99.90
19174;DHT22;9719;49.322;8.536;2023-05-08T16:28:08;22.60;99.90
19174;DHT22;9719;49.322;8.536;2023-05-08T16:33:11;22.60;99.90
19174;DHT22;9719;49.322;8.536;2023-05-08T16:38:13;22.60;99.90
19174;DHT22;9719;49.322;8.536;2023-05-08T16:43:14;22.50;99.90
19174;DHT22;9719;49.322;8.536;2023-05-08T16:48:17;22.40;99.90
19174;DHT22;9719;49.322;8.536;2023-05-08T16:53:19;22.30;99.90
19174;DHT22;9719;49.322;8.536;2023-05-08T16:58:21;22.30;99.90
19174;DHT22;9719;49.322;8.536;2023-05-08T17:03:24;22.10;99.90
19174;DHT22;9719;49.322;8.536;2023-05-08T17:08:25;22.00;99.90
19174;DHT22;9719;49.322;8.536;2023-05-08T17:13:27;21.80;99.90
19174;DHT22;9719;49.322;8.536;2023-05-08T17:18:30;21.70;99.90
19174;DHT22;9719;49.322;8.536;2023-05-08T17:23:32;21.60;99.90
19174;DHT22;9719;49.322;8.536;2023-05-08T17:28:33;21.50;99.90
19174;DHT22;9719;49.322;8.536;2023-05-08T17:33:36;21.40;99.90
19174;DHT22;9719;49.322;8.536;2023-05-08T17:38:38;21.30;99.90
19174;DHT22;9719;49.322;8.536;2023-05-08T17:43:45;21.10;99.90
19174;DHT22;9719;49.322;8.536;2023-05-08T17:48:47;20.90;99.90
19174;DHT22;9719;49.322;8.536;2023-05-08T17:53:49;20.80;99.90
19174;DHT22;9719;49.322;8.536;2023-05-08T17:58:52;20.60;99.90
19174;DHT22;9719;49.322;8.536;2023-05-08T18:03:56;20.50;99.90
19174;DHT22;9719;49.322;8.536;2023-05-08T18:08:57;20.50;99.90
19174;DHT22;9719;49.322;8.536;2023-05-08T18:13:59;20.40;99.90
19174;DHT22;9719;49.322;8.536;2023-05-08T18:19:02;20.40;99.90
19174;DHT22;9719;49.322;8.536;2023-05-08T18:24:05;20.30;99.90
19174;DHT22;9719;49.322;8.536;2023-05-08T18:29:06;20.20;99.90
19174;DHT22;9719;49.322;8.536;2023-05-08T18:34:09;20.10;99.90
19174;DHT22;9719;49.322;8.536;2023-05-08T18:39:11;19.90;99.90
19174;DHT22;9719;49.322;8.536;2023-05-08T18:44:13;19.90;99.90
19174;DHT22;9719;49.322;8.536;2023-05-08T18:49:16;19.80;99.90
19174;DHT22;9719;49.322;8.536;2023-05-08T18:54:17;19.70;99.90
19174;DHT22;9719;49.322;8.536;2023-05-08T18:59:19;19.60;99.90
19174;DHT22;9719;49.322;8.536;2023-05-08T19:04:22;19.40;99.90
19174;DHT22;9719;49.322;8.536;2023-05-08T19:09:24;19.30;99.90
19174;DHT22;9719;49.322;8.536;2023-05-08T19:14:26;19.30;99.90
19174;DHT22;9719;49.322;8.536;2023-05-08T19:19:29;19.20;99.90
19174;DHT22;9719;49.322;8.536;2023-05-08T19:24:30;19.10;99.90
19174;DHT22;9719;49.322;8.536;2023-05-08T19:29:33;19.00;99.90
19174;DHT22;9719;49.322;8.536;2023-05-08T19:34:36;18.90;99.90
19174;DHT22;9719;49.322;8.536;2023-05-08T19:39:38;18.90;99.90
19174;DHT22;9719;49.322;8.536;2023-05-08T19:44:40;18.80;99.90
19174;DHT22;9719;49.322;8.536;2023-05-08T19:49:44;18.80;99.90
19174;DHT22;9719;49.322;8.536;2023-05-08T19:54:45;18.70;99.90
19174;DHT22;9719;49.322;8.536;2023-05-08T19:59:47;18.70;99.90
19174;DHT22;9719;49.322;8.536;2023-05-08T20:04:50;18.70;99.90
19174;DHT22;9719;49.322;8.536;2023-05-08T20:09:55;18.70;99.90
19174;DHT22;9719;49.322;8.536;2023-05-08T20:14:56;18.60;99.90
19174;DHT22;9719;49.322;8.536;2023-05-08T20:19:59;18.60;99.90
19174;DHT22;9719;49.322;8.536;2023-05-08T20:25:01;18.60;99.90
19174;DHT22;9719;49.322;8.536;2023-05-08T20:30:03;18.60;99.90
19174;DHT22;9719;49.322;8.536;2023-05-08T20:35:08;18.60;99.90
19174;DHT22;9719;49.322;8.536;2023-05-08T20:40:10;18.50;99.90
19174;DHT22;9719;49.322;8.536;2023-05-08T20:45:12;18.50;99.90
19174;DHT22;9719;49.322;8.536;2023-05-08T20:50:15;18.40;99.90
19174;DHT22;9719;49.322;8.536;2023-05-08T20:55:16;18.30;99.90
19174;DHT22;9719;49.322;8.536;2023-05-08T21:00:18;18.20;99.90
19174;DHT22;9719;49.322;8.536;2023-05-08T21:05:21;18.10;99.90
19174;DHT22;9719;49.322;8.536;2023-05-08T21:10:23;18.10;99.90
19174;DHT22;9719;49.322;8.536;2023-05-08T21:15:27;18.10;99.90
19174;DHT22;9719;49.322;8.536;2023-05-08T21:20:32;18.10;99.90
19174;DHT22;9719;49.322;8.536;2023-05-08T21:25:34;18.10;99.90
19174;DHT22;9719;49.322;8.536;2023-05-08T21:30:35;18.10;99.90
19174;DHT22;9719;49.322;8.536;2023-05-08T21:35:38;18.20;99.90
19174;DHT22;9719;49.322;8.536;2023-05-08T21:40:40;18.20;99.90
19174;DHT22;9719;49.322;8.536;2023-05-08T21:45:42;18.10;99.90
19174;DHT22;9719;49.322;8.536;2023-05-08T21:50:45;18.10;99.90
19174;DHT22;9719;49.322;8.536;2023-05-08T21:55:46;18.10;99.90
19174;DHT22;9719;49.322;8.536;2023-05-08T22:00:48;18.10;99.90
19174;DHT22;9719;49.322;8.536;2023-05-08T22:05:51;18.10;99.90
19174;DHT22;9719;49.322;8.536;2023-05-08T22:10:54;18.00;99.90
19174;DHT22;9719;49.322;8.536;2023-05-08T22:15:56;18.00;99.90
19174;DHT22;9719;49.322;8.536;2023-05-08T22:20:59;18.00;99.90
19174;DHT22;9719;49.322;8.536;2023-05-08T22:26:01;18.00;99.90
19174;DHT22;9719;49.322;8.536;2023-05-08T22:31:02;17.90;99.90
19174;DHT22;9719;49.322;8.536;2023-05-08T22:36:06;17.80;99.90
19174;DHT22;9719;49.322;8.536;2023-05-08T22:41:08;17.80;99.90
19174;DHT22;9719;49.322;8.536;2023-05-08T22:46:10;17.70;99.90
19174;DHT22;9719;49.322;8.536;2023-05-08T22:51:13;17.70;99.90
19174;DHT22;9719;49.322;8.536;2023-05-08T22:56:15;17.70;99.90
19174;DHT22;9719;49.322;8.536;2023-05-08T23:01:17;17.60;99.90
19174;DHT22;9719;49.322;8.536;2023-05-08T23:06:20;17.60;99.90
19174;DHT22;9719;49.322;8.536;2023-05-08T23:11:22;17.60;99.90
19174;DHT22;9719;49.322;8.536;2023-05-08T23:16:24;17.50;99.90
19174;DHT22;9719;49.322;8.536;2023-05-08T23:21:27;17.50;99.90
19174;DHT22;9719;49.322;8.536;2023-05-08T23:26:29;17.40;99.90
19174;DHT22;9719;49.322;8.536;2023-05-08T23:31:30;17.30;99.90
19174;DHT22;9719;49.322;8.536;2023-05-08T23:36:33;17.30;99.90
19174;DHT22;9719;49.322;8.536;2023-05-08T23:41:35;17.20;99.90
19174;DHT22;9719;49.322;8.536;2023-05-08T23:46:38;17.20;99.90
19174;DHT22;9719;49.322;8.536;2023-05-08T23:51:41;17.20;99.90
19174;DHT22;9719;49.322;8.536;2023-05-08T23:56:42;17.10;99.90
